createdAt,value
2017-11-03T00:01:17.511Z,46.23
2017-11-03T00:03:46.609Z,46.30
2017-11-03T00:06:14.919Z,52.20
2017-11-03T00:08:43.277Z,49.63
2017-11-03T00:11:11.551Z,49.43
2017-11-03T00:13:39.850Z,49.10
2017-11-03T00:16:08.251Z,48.00
2017-11-03T00:18:36.501Z,51.87
2017-11-03T00:21:04.773Z,49.90
2017-11-03T00:23:33.071Z,50.87
2017-11-03T00:26:01.355Z,49.20
2017-11-03T00:28:29.694Z,48.60
2017-11-03T00:30:57.994Z,45.93
2017-11-03T00:33:26.291Z,46.43
2017-11-03T00:35:54.605Z,49.77
2017-11-03T00:38:22.920Z,48.43
2017-11-03T00:40:51.191Z,46.20
2017-11-03T00:43:19.472Z,47.13
2017-11-03T00:45:47.775Z,49.33
2017-11-03T00:48:16.043Z,48.17
2017-11-03T00:50:44.349Z,45.47
2017-11-03T00:53:14.386Z,47.33
2017-11-03T00:55:42.669Z,48.47
2017-11-03T00:58:10.974Z,47.93
2017-11-03T01:00:39.270Z,48.73
2017-11-03T01:03:08.349Z,50.50
2017-11-03T01:05:36.628Z,46.23
2017-11-03T01:08:04.967Z,47.27
2017-11-03T01:10:33.261Z,44.70
2017-11-03T01:13:02.103Z,45.57
2017-11-03T01:15:30.366Z,45.97
2017-11-03T01:17:58.656Z,43.70
2017-11-03T01:20:26.922Z,44.07
2017-11-03T01:22:55.209Z,49.40
2017-11-03T01:25:23.466Z,45.67
2017-11-03T01:27:51.740Z,47.60
2017-11-03T01:30:20.032Z,45.93
2017-11-03T01:32:48.341Z,46.07
2017-11-03T01:35:17.396Z,44.53
2017-11-03T01:37:47.023Z,45.90
2017-11-03T01:40:15.310Z,44.33
2017-11-03T01:42:44.436Z,44.30
2017-11-03T01:45:13.468Z,42.60
2017-11-03T01:47:41.730Z,44.43
2017-11-03T01:50:10.804Z,44.77
2017-11-03T01:52:39.990Z,44.20
2017-11-03T01:55:09.060Z,47.27
2017-11-03T01:57:37.327Z,46.47
2017-11-03T02:00:05.623Z,48.67
2017-11-03T02:02:33.972Z,47.00
2017-11-03T02:05:02.273Z,46.37
2017-11-03T02:07:30.558Z,45.37
2017-11-03T02:09:58.846Z,42.87
2017-11-03T02:12:27.893Z,43.07
2017-11-03T02:14:56.204Z,43.90
2017-11-03T02:17:25.419Z,44.93
2017-11-03T02:19:53.737Z,42.30
2017-11-03T02:22:22.046Z,40.77
2017-11-03T02:24:50.333Z,43.37
2017-11-03T02:27:19.425Z,43.40
2017-11-03T02:29:47.701Z,46.17
2017-11-03T02:32:15.982Z,43.80
2017-11-03T02:34:48.481Z,44.50
2017-11-03T02:37:16.710Z,44.80
2017-11-03T02:39:45.857Z,42.53
2017-11-03T02:42:14.616Z,44.57
2017-11-03T02:44:42.853Z,40.97
2017-11-03T02:47:11.142Z,43.23
2017-11-03T02:49:39.553Z,43.50
2017-11-03T02:52:07.830Z,43.70
2017-11-03T02:54:36.292Z,45.13
2017-11-03T02:57:04.551Z,43.47
2017-11-03T02:59:32.800Z,45.20
2017-11-03T03:02:01.833Z,45.30
2017-11-03T03:04:30.120Z,39.77
2017-11-03T03:06:59.127Z,40.97
2017-11-03T03:09:27.463Z,43.37
2017-11-03T03:11:56.499Z,44.60
2017-11-03T03:14:24.757Z,41.10
2017-11-03T03:16:53.923Z,39.60
2017-11-03T03:19:22.967Z,44.47
2017-11-03T03:21:51.241Z,45.17
2017-11-03T03:24:19.866Z,47.20
2017-11-03T03:26:48.877Z,43.90
2017-11-03T03:29:17.158Z,44.97
2017-11-03T03:31:47.035Z,45.20
2017-11-03T03:34:15.311Z,43.30
2017-11-03T03:36:44.560Z,43.07
2017-11-03T03:39:12.835Z,43.77
2017-11-03T03:41:41.136Z,47.23
2017-11-03T03:44:09.387Z,44.27
2017-11-03T03:46:38.414Z,42.90
2017-11-03T03:49:06.715Z,44.77
2017-11-03T03:51:34.999Z,42.53
2017-11-03T03:54:03.299Z,45.93
2017-11-03T03:56:31.539Z,41.90
2017-11-03T03:58:59.830Z,44.43
2017-11-03T04:01:28.120Z,42.00
2017-11-03T04:03:56.372Z,43.80
2017-11-03T04:06:24.648Z,41.90
2017-11-03T04:08:52.979Z,42.37
2017-11-03T04:11:22.013Z,43.20
2017-11-03T04:13:50.261Z,40.80
2017-11-03T04:16:18.639Z,44.37
2017-11-03T04:18:46.912Z,42.43
2017-11-03T04:21:15.952Z,47.40
2017-11-03T04:23:44.237Z,44.57
2017-11-03T04:26:12.493Z,42.73
2017-11-03T04:28:40.764Z,42.27
2017-11-03T04:31:09.011Z,41.90
2017-11-03T04:33:37.300Z,40.53
2017-11-03T04:36:05.582Z,43.43
2017-11-03T04:38:33.868Z,43.30
2017-11-03T04:41:02.138Z,43.60
2017-11-03T04:43:30.423Z,38.87
2017-11-03T04:45:58.695Z,40.00
2017-11-03T04:48:26.992Z,41.40
2017-11-03T04:50:55.246Z,38.73
2017-11-03T04:53:23.531Z,36.40
2017-11-03T04:55:52.722Z,38.30
2017-11-03T04:58:20.989Z,35.20
2017-11-03T05:00:49.347Z,36.70
2017-11-03T05:03:17.586Z,42.07
2017-11-03T05:05:45.873Z,37.30
2017-11-03T05:08:14.147Z,37.53
2017-11-03T05:10:42.387Z,37.40
2017-11-03T05:13:10.786Z,36.77
2017-11-03T05:15:39.472Z,38.20
2017-11-03T05:18:07.737Z,37.33
2017-11-03T05:20:35.991Z,35.97
2017-11-03T05:23:05.035Z,37.47
2017-11-03T05:25:33.282Z,35.47
2017-11-03T05:28:02.327Z,36.37
2017-11-03T05:30:30.691Z,35.83
2017-11-03T05:32:58.942Z,36.97
2017-11-03T05:35:27.709Z,37.77
2017-11-03T05:37:56.726Z,37.30
2017-11-03T05:40:25.008Z,41.43
2017-11-03T05:42:53.292Z,36.77
2017-11-03T05:45:21.572Z,34.97
2017-11-03T05:47:49.812Z,38.00
2017-11-03T05:50:18.874Z,38.30
2017-11-03T05:52:47.139Z,39.70
2017-11-03T05:55:15.392Z,38.63
2017-11-03T05:57:43.654Z,37.70
2017-11-03T06:00:11.925Z,37.53
2017-11-03T06:02:40.220Z,36.70
2017-11-03T06:05:08.463Z,37.07
2017-11-03T06:07:37.495Z,35.73
2017-11-03T06:10:06.668Z,37.17
2017-11-03T06:12:35.694Z,37.30
2017-11-03T06:15:03.966Z,37.37
2017-11-03T06:17:32.211Z,34.50
2017-11-03T06:20:00.578Z,36.93
2017-11-03T06:22:28.842Z,35.60
2017-11-03T06:24:57.116Z,34.97
2017-11-03T06:27:25.381Z,35.97
2017-11-03T06:29:53.634Z,39.00
2017-11-03T06:32:22.182Z,36.40
2017-11-03T06:34:51.232Z,35.20
2017-11-03T06:37:19.502Z,38.77
2017-11-03T06:39:47.762Z,37.10
2017-11-03T06:42:16.004Z,38.70
2017-11-03T06:44:45.056Z,37.17
2017-11-03T06:47:13.352Z,37.33
2017-11-03T06:49:41.616Z,36.23
2017-11-03T06:52:09.874Z,35.00
2017-11-03T06:54:38.121Z,35.20
2017-11-03T06:57:06.415Z,37.80
2017-11-03T06:59:34.718Z,33.37
2017-11-03T07:02:02.985Z,34.10
2017-11-03T07:04:31.238Z,33.60
2017-11-03T07:06:59.540Z,36.07
2017-11-03T07:09:27.810Z,32.70
2017-11-03T07:11:56.090Z,34.23
2017-11-03T07:14:24.361Z,33.13
2017-11-03T07:16:52.632Z,33.20
2017-11-03T07:19:20.987Z,32.43
2017-11-03T07:21:49.329Z,36.60
2017-11-03T07:24:17.612Z,33.50
2017-11-03T07:26:45.867Z,35.40
2017-11-03T07:29:14.139Z,36.40
2017-11-03T07:31:42.392Z,33.73
2017-11-03T07:34:11.491Z,33.50
2017-11-03T07:36:39.768Z,31.90
2017-11-03T07:39:08.032Z,34.90
2017-11-03T07:41:37.067Z,34.57
2017-11-03T07:44:05.360Z,34.70
2017-11-03T07:46:33.632Z,33.13
2017-11-03T07:49:01.890Z,32.20
2017-11-03T07:51:30.165Z,30.53
2017-11-03T07:53:58.419Z,29.00
2017-11-03T07:56:27.450Z,31.80
2017-11-03T07:58:55.714Z,29.37
2017-11-03T08:01:23.982Z,29.50
2017-11-03T08:03:52.255Z,31.63
2017-11-03T08:06:21.263Z,30.47
2017-11-03T08:08:49.533Z,29.97
2017-11-03T08:11:17.795Z,29.00
2017-11-03T08:13:46.991Z,28.03
2017-11-03T08:16:16.003Z,28.70
2017-11-03T08:18:44.303Z,27.70
2017-11-03T08:21:12.546Z,27.97
2017-11-03T08:23:41.565Z,29.57
2017-11-03T08:26:09.840Z,24.67
2017-11-03T08:28:38.104Z,24.63
2017-11-03T08:31:06.373Z,25.67
2017-11-03T08:33:34.670Z,23.90
2017-11-03T08:36:02.933Z,24.07
2017-11-03T08:38:31.207Z,23.50
2017-11-03T08:41:00.205Z,23.80
2017-11-03T08:43:28.504Z,24.23
2017-11-03T08:45:56.755Z,23.87
2017-11-03T08:48:25.771Z,23.87
2017-11-03T08:50:54.044Z,25.90
2017-11-03T08:53:22.298Z,25.67
2017-11-03T08:55:51.332Z,24.10
2017-11-03T08:58:19.616Z,25.97
2017-11-03T09:00:47.921Z,22.77
2017-11-03T09:03:16.980Z,24.60
2017-11-03T09:05:45.250Z,24.20
2017-11-03T09:08:13.531Z,24.67
2017-11-03T09:10:41.799Z,27.47
2017-11-03T09:13:10.122Z,26.43
2017-11-03T09:15:38.384Z,23.57
2017-11-03T09:18:06.666Z,24.30
2017-11-03T09:20:35.088Z,23.63
2017-11-03T09:23:03.416Z,25.60
2017-11-03T09:25:31.689Z,24.57
2017-11-03T09:27:59.968Z,25.30
2017-11-03T09:30:28.839Z,23.90
2017-11-03T09:32:57.103Z,33.50
2017-11-03T09:35:25.381Z,25.27
2017-11-03T09:37:53.678Z,24.10
2017-11-03T09:40:21.968Z,24.37
2017-11-03T09:42:51.228Z,27.60
2017-11-03T09:45:20.256Z,24.50
2017-11-03T09:47:48.497Z,23.60
2017-11-03T09:50:17.423Z,25.80
2017-11-03T09:52:45.761Z,25.90
2017-11-03T09:55:14.043Z,26.20
2017-11-03T09:57:42.311Z,25.57
2017-11-03T10:00:10.939Z,24.27
2017-11-03T10:02:39.243Z,25.43
2017-11-03T10:05:07.507Z,26.83
2017-11-03T10:07:35.780Z,26.77
2017-11-03T10:10:04.053Z,27.00
2017-11-03T10:12:32.315Z,29.50
2017-11-03T10:15:00.589Z,26.00
2017-11-03T10:17:28.847Z,31.73
2017-11-03T10:19:57.931Z,25.97
2017-11-03T10:22:26.228Z,24.70
2017-11-03T10:24:54.491Z,25.93
2017-11-03T10:27:22.791Z,27.07
2017-11-03T10:29:51.110Z,28.33
2017-11-03T10:32:19.377Z,26.50
2017-11-03T10:34:47.738Z,29.27
2017-11-03T10:37:15.987Z,25.77
2017-11-03T10:39:45.035Z,22.03
2017-11-03T10:42:13.303Z,25.60
2017-11-03T10:44:41.574Z,25.00
2017-11-03T10:47:09.840Z,25.63
2017-11-03T10:49:38.164Z,25.67
2017-11-03T10:52:06.404Z,24.23
2017-11-03T10:54:34.708Z,22.27
2017-11-03T10:57:02.996Z,22.13
2017-11-03T10:59:31.428Z,23.80
2017-11-03T11:01:59.718Z,24.57
2017-11-03T11:04:27.992Z,23.80
2017-11-03T11:06:56.269Z,24.07
2017-11-03T11:09:24.528Z,25.17
2017-11-03T11:11:53.563Z,25.70
2017-11-03T11:14:21.891Z,24.80
2017-11-03T11:16:50.929Z,25.83
2017-11-03T11:19:19.204Z,24.13
2017-11-03T11:21:48.321Z,26.10
2017-11-03T11:24:16.593Z,29.00
2017-11-03T11:26:44.853Z,29.77
2017-11-03T11:29:13.155Z,28.23
2017-11-03T11:31:41.544Z,28.40
2017-11-03T11:34:09.763Z,29.37
2017-11-03T11:36:38.804Z,29.10
2017-11-03T11:39:07.088Z,26.87
2017-11-03T11:41:35.368Z,28.90
2017-11-03T11:44:03.623Z,28.20
2017-11-03T11:46:31.919Z,30.53
2017-11-03T11:49:00.219Z,29.33
2017-11-03T11:51:28.492Z,28.50
2017-11-03T11:53:57.554Z,28.67
2017-11-03T11:56:26.463Z,26.40
2017-11-03T11:58:55.511Z,28.67
2017-11-03T12:01:24.782Z,26.63
2017-11-03T12:03:55.389Z,27.23
2017-11-03T12:06:23.643Z,25.80
2017-11-03T12:08:52.033Z,26.63
2017-11-03T12:11:21.131Z,26.23
2017-11-03T12:13:49.547Z,26.47
2017-11-03T12:16:17.800Z,23.77
2017-11-03T12:18:46.121Z,25.87
2017-11-03T12:21:15.115Z,24.63
2017-11-03T12:23:43.463Z,21.60
2017-11-03T12:26:12.550Z,22.30
2017-11-03T12:28:41.156Z,20.07
2017-11-03T12:31:10.972Z,19.37
2017-11-03T12:33:40.114Z,20.63
2017-11-03T12:36:08.419Z,21.07
2017-11-03T12:38:36.858Z,21.90
2017-11-03T12:41:06.825Z,22.53
2017-11-03T12:43:35.087Z,22.33
2017-11-03T12:46:03.367Z,24.17
2017-11-03T12:48:31.706Z,24.37
2017-11-03T12:51:00.029Z,22.83
2017-11-03T12:53:28.391Z,20.23
2017-11-03T12:55:56.676Z,21.60
2017-11-03T12:58:25.823Z,22.57
2017-11-03T13:00:55.085Z,22.60
2017-11-03T13:03:24.541Z,21.63
2017-11-03T13:05:53.386Z,22.83
2017-11-03T13:08:21.697Z,22.57
2017-11-03T13:10:50.908Z,19.90
2017-11-03T13:13:19.229Z,20.60
2017-11-03T13:15:47.709Z,21.97
2017-11-03T13:18:17.558Z,23.73
2017-11-03T13:20:46.621Z,22.70
2017-11-03T13:23:15.576Z,20.57
2017-11-03T13:25:43.914Z,21.30
2017-11-03T13:28:12.222Z,20.30
2017-11-03T13:30:40.607Z,21.87
2017-11-03T13:33:08.901Z,19.50
2017-11-03T13:35:37.202Z,21.80
2017-11-03T13:38:05.585Z,20.80
2017-11-03T13:40:35.422Z,23.30
2017-11-03T13:43:03.776Z,21.50
2017-11-03T13:45:32.070Z,21.60
2017-11-03T13:48:00.401Z,21.63
2017-11-03T13:50:28.702Z,22.47
2017-11-03T13:52:57.060Z,21.57
2017-11-03T13:55:25.349Z,21.97
2017-11-03T13:57:53.673Z,21.03
2017-11-03T14:00:21.963Z,20.00
2017-11-03T14:02:51.016Z,20.40
2017-11-03T14:05:20.191Z,19.40
2017-11-03T14:07:48.503Z,19.67
2017-11-03T14:10:16.826Z,18.53
2017-11-03T14:12:46.223Z,20.17
2017-11-03T14:15:14.610Z,19.47
2017-11-03T14:17:42.855Z,18.80
2017-11-03T14:20:11.154Z,18.73
2017-11-03T14:22:39.395Z,19.40
2017-11-03T14:25:08.426Z,19.07
2017-11-03T14:27:36.663Z,21.10
2017-11-03T14:30:04.973Z,18.07
2017-11-03T14:32:34.286Z,19.50
2017-11-03T14:35:03.362Z,19.00
2017-11-03T14:37:31.628Z,19.23
2017-11-03T14:39:59.883Z,19.20
2017-11-03T14:42:28.245Z,19.27
2017-11-03T14:44:56.503Z,18.87
2017-11-03T14:47:24.918Z,19.37
2017-11-03T14:49:53.191Z,20.80
2017-11-03T14:52:21.476Z,20.40
2017-11-03T14:54:49.744Z,20.53
2017-11-03T14:57:18.035Z,18.60
2017-11-03T14:59:46.319Z,19.90
2017-11-03T15:02:14.608Z,20.10
2017-11-03T15:04:42.916Z,19.93
2017-11-03T15:07:11.226Z,26.30
2017-11-03T15:09:40.296Z,21.20
2017-11-03T15:12:08.678Z,19.90
2017-11-03T15:14:37.714Z,25.40
2017-11-03T15:17:05.977Z,24.07
2017-11-03T15:19:34.310Z,21.37
2017-11-03T15:22:02.585Z,20.77
2017-11-03T15:24:31.649Z,19.53
2017-11-03T15:26:59.917Z,22.57
2017-11-03T15:29:29.015Z,18.07
2017-11-03T15:31:57.366Z,20.90
2017-11-03T15:34:25.741Z,20.87
2017-11-03T15:36:54.875Z,20.10
2017-11-03T15:39:23.129Z,17.83
2017-11-03T15:41:52.184Z,18.30
2017-11-03T15:44:21.097Z,20.40
2017-11-03T15:46:50.110Z,19.27
2017-11-03T15:49:18.400Z,30.30
2017-11-03T15:51:47.443Z,21.40
2017-11-03T15:54:15.708Z,21.97
2017-11-03T15:56:44.793Z,22.70
2017-11-03T15:59:13.093Z,21.17
2017-11-03T16:01:41.372Z,20.00
2017-11-03T16:04:10.327Z,20.73
2017-11-03T16:06:39.452Z,23.73
2017-11-03T16:09:08.519Z,21.83
2017-11-03T16:11:37.556Z,22.03
2017-11-03T16:14:05.803Z,22.83
2017-11-03T16:16:34.435Z,20.87
2017-11-03T16:19:03.497Z,21.37
2017-11-03T16:21:31.754Z,19.57
2017-11-03T16:24:00.064Z,19.93
2017-11-03T16:26:28.436Z,17.50
2017-11-03T16:28:56.702Z,20.07
2017-11-03T16:31:24.984Z,21.83
2017-11-03T16:33:53.224Z,17.53
2017-11-03T16:36:21.523Z,19.27
2017-11-03T16:38:49.767Z,18.90
2017-11-03T16:41:18.774Z,20.23
2017-11-03T16:43:47.091Z,21.33
2017-11-03T16:46:15.397Z,21.97
2017-11-03T16:48:44.257Z,21.57
2017-11-03T16:51:12.568Z,20.90
2017-11-03T16:53:41.612Z,21.90
2017-11-03T16:56:10.534Z,20.50
2017-11-03T16:58:39.637Z,21.20
2017-11-03T17:01:07.921Z,20.67
2017-11-03T17:03:37.281Z,23.37
2017-11-03T17:06:05.536Z,21.30
2017-11-03T17:08:33.860Z,21.40
2017-11-03T17:11:02.274Z,20.33
2017-11-03T17:13:31.374Z,18.93
2017-11-03T17:15:59.678Z,20.50
2017-11-03T17:18:27.977Z,21.83
2017-11-03T17:20:56.226Z,21.80
2017-11-03T17:23:25.241Z,21.20
2017-11-03T17:25:53.518Z,21.97
2017-11-03T17:28:21.779Z,23.83
2017-11-03T17:30:51.599Z,21.23
2017-11-03T17:33:19.896Z,20.23
2017-11-03T17:35:48.165Z,23.30
2017-11-03T17:38:16.464Z,21.33
2017-11-03T17:40:44.742Z,21.47
2017-11-03T17:43:13.087Z,21.47
2017-11-03T17:45:42.294Z,21.70
2017-11-03T17:48:10.585Z,20.93
2017-11-03T17:50:38.906Z,20.87
2017-11-03T17:53:07.181Z,20.83
2017-11-03T17:55:35.527Z,22.10
2017-11-03T17:58:03.907Z,21.40
2017-11-03T18:00:32.191Z,22.33
2017-11-03T18:03:00.524Z,22.70
2017-11-03T18:05:29.704Z,21.53
2017-11-03T18:07:58.775Z,23.87
2017-11-03T18:10:27.048Z,21.47
2017-11-03T18:12:55.316Z,23.87
2017-11-03T18:15:23.963Z,25.53
2017-11-03T18:17:53.032Z,23.17
2017-11-03T18:20:21.415Z,26.53
2017-11-03T18:22:50.981Z,25.90
2017-11-03T18:25:19.286Z,23.87
2017-11-03T18:27:48.532Z,23.40
2017-11-03T18:30:16.849Z,23.70
2017-11-03T18:32:45.187Z,25.40
2017-11-03T18:35:13.541Z,25.30
2017-11-03T18:37:42.623Z,27.90
2017-11-03T18:40:11.232Z,22.90
2017-11-03T18:42:40.291Z,23.67
2017-11-03T18:45:08.560Z,24.43
2017-11-03T18:47:37.111Z,26.90
2017-11-03T18:50:06.412Z,28.77
2017-11-03T18:52:34.844Z,28.87
2017-11-03T18:55:03.229Z,32.57
2017-11-03T18:57:31.534Z,32.67
2017-11-03T19:00:01.421Z,33.13
2017-11-03T19:02:29.759Z,34.70
2017-11-03T19:04:58.915Z,30.47
2017-11-03T19:07:27.179Z,29.03
2017-11-03T19:09:56.307Z,30.70
2017-11-03T19:12:24.706Z,28.77
2017-11-03T19:14:52.974Z,25.10
2017-11-03T19:17:21.262Z,27.60
2017-11-03T19:19:49.552Z,27.40
2017-11-03T19:22:17.865Z,28.13
2017-11-03T19:24:46.192Z,26.60
2017-11-03T19:27:14.552Z,28.20
2017-11-03T19:29:43.602Z,33.97
2017-11-03T19:32:12.380Z,43.43
2017-11-03T19:34:41.127Z,52.27
2017-11-03T19:37:10.186Z,40.70
2017-11-03T19:39:39.320Z,42.70
2017-11-03T19:42:08.359Z,33.70
2017-11-03T19:44:36.798Z,31.90
2017-11-03T19:47:05.877Z,34.80
2017-11-03T19:49:34.173Z,30.50
2017-11-03T19:52:03.175Z,32.47
2017-11-03T19:54:31.633Z,32.80
2017-11-03T19:57:00.083Z,30.83
2017-11-03T19:59:28.387Z,27.63
2017-11-03T20:01:58.380Z,28.40
2017-11-03T20:04:26.702Z,28.33
2017-11-03T20:06:55.169Z,26.27
2017-11-03T20:09:24.268Z,29.23
2017-11-03T20:11:53.151Z,27.20
2017-11-03T20:14:21.530Z,30.00
2017-11-03T20:16:51.544Z,30.00
2017-11-03T20:19:21.825Z,29.27
2017-11-03T20:21:51.013Z,28.40
2017-11-03T20:24:19.286Z,27.90
2017-11-03T20:26:47.595Z,29.70
2017-11-03T20:29:16.900Z,29.40
2017-11-03T20:31:45.295Z,29.03
2017-11-03T20:34:14.385Z,26.57
2017-11-03T20:36:42.924Z,28.93
2017-11-03T20:39:11.231Z,29.83
2017-11-03T20:41:39.485Z,29.10
2017-11-03T20:44:07.884Z,27.43
2017-11-03T20:46:36.166Z,28.23
2017-11-03T20:49:04.456Z,27.30
2017-11-03T20:51:32.735Z,28.47
2017-11-03T20:54:01.030Z,29.40
2017-11-03T20:56:29.317Z,30.67
2017-11-03T20:58:58.382Z,30.27
2017-11-03T21:01:26.660Z,29.10
2017-11-03T21:03:54.947Z,32.20
2017-11-03T21:06:23.345Z,32.13
2017-11-03T21:08:51.634Z,27.00
2017-11-03T21:11:19.903Z,29.47
2017-11-03T21:13:48.989Z,28.37
2017-11-03T21:16:17.300Z,27.37
2017-11-03T21:18:46.365Z,26.30
2017-11-03T21:21:14.650Z,30.90
2017-11-03T21:23:42.930Z,27.70
2017-11-03T21:26:11.298Z,29.37
2017-11-03T21:28:40.395Z,27.30
2017-11-03T21:31:08.676Z,27.90
2017-11-03T21:33:38.237Z,27.80
2017-11-03T21:36:06.548Z,31.23
2017-11-03T21:38:35.810Z,28.17
2017-11-03T21:41:05.076Z,27.10
2017-11-03T21:43:33.861Z,28.00
2017-11-03T21:46:03.123Z,26.00
2017-11-03T21:48:32.207Z,26.90
2017-11-03T21:51:00.529Z,26.73
2017-11-03T21:53:28.781Z,28.47
2017-11-03T21:55:57.049Z,25.63
2017-11-03T21:58:25.471Z,27.67
2017-11-03T22:00:53.798Z,27.30
2017-11-03T22:03:22.150Z,28.17
2017-11-03T22:05:50.446Z,27.60
2017-11-03T22:08:18.717Z,28.53
2017-11-03T22:10:47.004Z,26.30
2017-11-03T22:13:15.272Z,27.40
2017-11-03T22:15:43.545Z,25.60
2017-11-03T22:18:12.586Z,30.33
2017-11-03T22:20:40.902Z,29.00
2017-11-03T22:23:09.259Z,28.80
2017-11-03T22:25:37.530Z,39.70
2017-11-03T22:28:05.771Z,39.20
2017-11-03T22:30:34.055Z,38.17
2017-11-03T22:33:02.342Z,47.67
2017-11-03T22:35:30.618Z,51.33
2017-11-03T22:37:58.887Z,54.07
2017-11-03T22:40:27.149Z,41.67
2017-11-03T22:42:55.418Z,36.70
2017-11-03T22:45:23.770Z,28.67
2017-11-03T22:47:52.051Z,25.37
2017-11-03T22:50:20.364Z,25.40
2017-11-03T22:52:48.611Z,25.60
2017-11-03T22:55:16.899Z,28.07
2017-11-03T22:57:45.947Z,26.13
2017-11-03T23:00:15.127Z,24.20
2017-11-03T23:02:43.425Z,25.20
2017-11-03T23:05:11.757Z,24.87
2017-11-03T23:07:40.104Z,24.13
2017-11-03T23:10:08.378Z,22.77
2017-11-03T23:12:36.677Z,21.97
2017-11-03T23:15:05.008Z,23.60
2017-11-03T23:17:33.278Z,22.17
2017-11-03T23:20:01.536Z,24.60
2017-11-03T23:22:29.843Z,25.27
2017-11-03T23:24:58.109Z,26.60
2017-11-03T23:27:26.371Z,27.57
2017-11-03T23:29:54.712Z,28.40
2017-11-03T23:32:22.982Z,24.70
2017-11-03T23:34:51.704Z,28.60
2017-11-03T23:37:19.975Z,25.47
2017-11-03T23:39:49.025Z,27.03
2017-11-03T23:42:18.105Z,23.83
2017-11-03T23:44:46.384Z,27.07
2017-11-03T23:47:14.632Z,25.27
2017-11-03T23:49:42.951Z,26.13
2017-11-03T23:52:11.235Z,25.27
2017-11-03T23:54:39.561Z,23.07
2017-11-03T23:57:08.563Z,23.30
2017-11-03T23:59:36.799Z,24.83
